Time;durP1;ratioP1;P1;durP2;ratioP2;P2;SDS_P1;SDS_P2;PMS_P1;PMS_P2;Temp;Humidity;BMP_temperature;BMP_pressure;BME280_temperature;BME280_humidity;BME280_pressure;Samples;Min_cycle;Max_cycle;Signal;HPM_P1;HPM_P2
2021/12/20 00:02:14;;;;;;;11.57;2.93;;;;;6.90;102056.00;;;;5002865;28;20739;-74
2021/12/20 00:05:01;;;;;;;8.80;2.67;;;;;6.90;102050.00;;;;4981499;28;20776;-73
2021/12/20 00:07:50;;;;;;;10.17;3.03;;;;;6.80;102045.00;;;;5018212;28;20234;-75
2021/12/20 00:10:36;;;;;;;7.93;2.50;;;;;6.80;102050.00;;;;5002267;28;20238;-74
2021/12/20 00:13:24;;;;;;;9.63;2.90;;;;;6.70;102039.00;;;;5008417;28;20233;-75
2021/12/20 00:16:10;;;;;;;9.07;2.90;;;;;6.70;102046.00;;;;5009737;28;20357;-75
2021/12/20 00:18:57;;;;;;;10.13;2.80;;;;;6.80;102040.00;;;;4998334;28;20365;-73
2021/12/20 00:21:44;;;;;;;14.50;3.20;;;;;6.70;102042.00;;;;4994031;28;20295;-76
2021/12/20 00:24:30;;;;;;;10.37;3.30;;;;;6.70;102037.00;;;;4978355;28;20837;-73
2021/12/20 00:27:19;;;;;;;11.17;3.00;;;;;6.70;102038.00;;;;4973757;28;20313;-75
2021/12/20 00:30:10;;;;;;;11.17;2.80;;;;;6.70;102033.00;;;;4999899;28;20249;-71
2021/12/20 00:32:56;;;;;;;11.10;2.63;;;;;6.60;102025.00;;;;4998876;28;20230;-74
2021/12/20 00:35:43;;;;;;;9.73;2.63;;;;;6.70;102040.00;;;;4995194;28;20358;-75
2021/12/20 00:41:33;;;;;;;8.47;2.37;;;;;6.70;102025.00;;;;5003330;28;20387;-74
2021/12/20 00:44:19;;;;;;;11.23;2.60;;;;;6.70;102035.00;;;;5018282;28;20280;-74
2021/12/20 00:47:13;;;;;;;20.30;2.43;;;;;6.60;102020.00;;;;5001970;28;20295;-75
2021/12/20 00:49:59;;;;;;;8.57;2.43;;;;;6.70;102023.00;;;;5004657;28;20232;-75
2021/12/20 00:52:47;;;;;;;18.07;2.90;;;;;6.60;102021.00;;;;4986375;28;20784;-75
2021/12/20 00:55:33;;;;;;;9.60;2.33;;;;;6.50;102013.00;;;;4995906;28;20242;-76
2021/12/20 00:58:19;;;;;;;10.43;2.17;;;;;6.50;102028.00;;;;5001176;28;20222;-75
2021/12/20 01:01:06;;;;;;;10.37;1.87;;;;;6.50;102010.00;;;;5006948;28;20374;-75
2021/12/20 01:03:54;;;;;;;14.20;2.53;;;;;6.50;102032.00;;;;5015646;28;20353;-72
2021/12/20 01:06:41;;;;;;;15.43;2.20;;;;;6.50;102026.00;;;;5011516;28;20904;-73
2021/12/20 01:09:27;;;;;;;10.00;2.10;;;;;6.40;102043.00;;;;4991898;28;20241;-75
2021/12/20 01:12:18;;;;;;;12.03;2.27;;;;;6.50;102014.00;;;;4981718;28;20238;-74
2021/12/20 01:15:04;;;;;;;11.57;2.30;;;;;6.50;102026.00;;;;4983158;28;20718;-73
2021/12/20 01:17:52;;;;;;;10.10;2.40;;;;;6.40;102032.00;;;;5002708;28;20320;-74
2021/12/20 01:20:41;;;;;;;9.33;2.20;;;;;6.40;102034.00;;;;5006105;28;20229;-75
2021/12/20 01:23:27;;;;;;;13.47;2.90;;;;;6.50;102037.00;;;;4998194;28;20242;-74
2021/12/20 01:26:13;;;;;;;7.87;2.47;;;;;6.40;102038.00;;;;5012288;28;20229;-74
2021/12/20 01:29:00;;;;;;;9.77;2.10;;;;;6.40;102046.00;;;;5006574;28;20373;-75
2021/12/20 01:31:47;;;;;;;9.43;2.47;;;;;6.40;102042.00;;;;5007713;28;20357;-74
2021/12/20 01:34:33;;;;;;;9.80;2.33;;;;;6.50;102037.00;;;;4984426;28;20310;-74
2021/12/20 01:37:20;;;;;;;14.97;2.60;;;;;6.40;102041.00;;;;5000482;28;20282;-72
2021/12/20 01:40:10;;;;;;;10.63;2.30;;;;;6.40;102041.00;;;;4990540;28;20257;-75
2021/12/20 01:42:58;;;;;;;18.97;2.67;;;;;6.30;102042.00;;;;5001459;28;20218;-73
2021/12/20 01:45:48;;;;;;;8.03;2.40;;;;;6.30;102041.00;;;;4985136;28;20590;-75
2021/12/20 01:48:35;;;;;;;13.30;2.40;;;;;6.30;102039.00;;;;4995032;28;20279;-74
2021/12/20 01:51:45;;;;;;;14.90;2.67;;;;;6.30;102045.00;;;;4998898;28;20242;-74
2021/12/20 01:54:33;;;;;;;10.47;2.77;;;;;6.30;102047.00;;;;5008612;28;20253;-76
2021/12/20 01:57:22;;;;;;;6.77;2.20;;;;;6.30;102041.00;;;;5023088;28;20276;-75
2021/12/20 02:00:11;;;;;;;5.87;2.13;;;;;6.20;102044.00;;;;5011322;28;20285;-76
2021/12/20 02:03:00;;;;;;;10.33;2.67;;;;;6.20;102033.00;;;;5024875;28;20280;-75
2021/12/20 02:05:52;;;;;;;12.37;2.40;;;;;6.20;102002.00;;;;5001031;28;20276;-75
2021/12/20 02:08:39;;;;;;;12.40;2.80;;;;;6.20;102031.00;;;;5018200;28;20607;-74
2021/12/20 02:11:27;;;;;;;11.40;2.27;;;;;6.20;102040.00;;;;5010951;28;20859;-73
2021/12/20 02:14:14;;;;;;;8.07;2.20;;;;;6.20;102038.00;;;;5020064;28;20225;-75
2021/12/20 02:17:00;;;;;;;10.13;2.20;;;;;6.10;102033.00;;;;5007627;28;20292;-75
2021/12/20 02:19:46;;;;;;;9.70;2.13;;;;;6.10;102043.00;;;;5000583;28;20755;-75
2021/12/20 02:22:34;;;;;;;8.87;2.77;;;;;6.00;102041.00;;;;4994443;28;20780;-74
2021/12/20 02:25:21;;;;;;;8.07;2.20;;;;;6.10;102037.00;;;;5001800;28;20230;-74
2021/12/20 02:28:09;;;;;;;8.83;1.90;;;;;6.00;102034.00;;;;4996492;28;20227;-75
2021/12/20 02:36:55;;;;;;;7.23;1.93;;;;;5.90;102024.00;;;;4998216;28;20717;-75
2021/12/20 02:37:27;;;;;;;10.77;2.43;;;;;5.90;102023.00;;;;4979594;28;20604;-75
2021/12/20 02:40:15;;;;;;;8.03;2.20;;;;;5.90;102025.00;;;;4998583;28;20705;-76
2021/12/20 02:43:02;;;;;;;9.77;2.33;;;;;5.90;102034.00;;;;5000278;28;20290;-75
2021/12/20 02:45:48;;;;;;;9.87;2.40;;;;;5.80;102020.00;;;;4988418;28;20250;-75
2021/12/20 02:48:35;;;;;;;10.67;2.37;;;;;5.80;102030.00;;;;4985109;28;20235;-75
2021/12/20 02:51:23;;;;;;;8.77;2.23;;;;;5.80;102029.00;;;;4986014;28;20750;-75
2021/12/20 02:54:11;;;;;;;8.77;2.30;;;;;5.80;102035.00;;;;4997429;28;20733;-74
2021/12/20 02:57:00;;;;;;;8.20;2.77;;;;;5.80;102028.00;;;;4984842;28;20649;-73
2021/12/20 02:59:46;;;;;;;11.53;2.37;;;;;5.70;102024.00;;;;4980670;28;20271;-74
2021/12/20 03:02:32;;;;;;;9.40;2.50;;;;;5.70;102027.00;;;;4999383;28;20234;-74
2021/12/20 03:05:18;;;;;;;8.43;2.53;;;;;5.80;102029.00;;;;4980766;28;20788;-73
2021/12/20 03:08:06;;;;;;;12.03;2.50;;;;;5.70;102036.00;;;;4997376;28;20316;-74
2021/12/20 03:10:55;;;;;;;13.87;2.60;;;;;5.80;102032.00;;;;4992288;28;20230;-74
2021/12/20 03:13:46;;;;;;;10.93;2.77;;;;;5.70;102040.00;;;;5006528;28;20604;-74
2021/12/20 03:16:32;;;;;;;9.87;2.33;;;;;5.80;102035.00;;;;5008580;28;20605;-74
2021/12/20 03:19:19;;;;;;;7.13;2.40;;;;;5.70;102023.00;;;;5008835;28;20709;-73
2021/12/20 03:22:07;;;;;;;8.33;2.43;;;;;5.70;102030.00;;;;5007546;28;20269;-74
2021/12/20 03:24:53;;;;;;;8.60;2.30;;;;;5.70;102022.00;;;;5001616;28;20226;-73
2021/12/20 03:27:39;;;;;;;8.97;2.30;;;;;5.70;102019.00;;;;5009533;28;21129;-74
2021/12/20 03:30:28;;;;;;;8.10;2.40;;;;;5.70;102039.00;;;;5006690;28;20741;-72
2021/12/20 03:33:14;;;;;;;13.20;2.37;;;;;5.70;102040.00;;;;5008743;28;20234;-74
2021/12/20 03:36:01;;;;;;;7.67;2.20;;;;;5.70;102034.00;;;;5004128;28;20237;-74
2021/12/20 03:38:47;;;;;;;11.00;2.63;;;;;5.70;102051.00;;;;4989602;28;20605;-72
2021/12/20 03:41:34;;;;;;;13.50;2.83;;;;;5.70;102049.00;;;;4994078;28;20258;-73
2021/12/20 03:44:21;;;;;;;10.30;2.17;;;;;5.80;102023.00;;;;5002481;28;20226;-74
2021/12/20 03:47:08;;;;;;;13.57;2.27;;;;;5.80;102032.00;;;;5006380;28;20232;-74
2021/12/20 03:49:55;;;;;;;13.27;2.87;;;;;5.80;102044.00;;;;5008490;28;20330;-72
2021/12/20 03:52:42;;;;;;;13.50;2.77;;;;;5.60;102033.00;;;;5006724;28;20238;-73
2021/12/20 03:55:28;;;;;;;10.40;2.63;;;;;5.80;102033.00;;;;5001407;28;20242;-73
2021/12/20 03:58:14;;;;;;;16.27;2.37;;;;;5.80;102035.00;;;;5009335;28;20225;-74
2021/12/20 04:01:03;;;;;;;8.10;2.30;;;;;5.80;102047.00;;;;5002437;28;20788;-74
2021/12/20 04:03:51;;;;;;;16.67;3.47;;;;;5.80;102039.00;;;;4995522;28;20226;-74
2021/12/20 04:06:37;;;;;;;13.13;2.63;;;;;5.80;102027.00;;;;5006442;28;20226;-76
2021/12/20 04:09:24;;;;;;;11.13;2.53;;;;;5.80;102037.00;;;;4999542;28;20235;-74
2021/12/20 04:12:11;;;;;;;10.70;2.20;;;;;5.80;102032.00;;;;4999980;28;20383;-75
2021/12/20 04:14:57;;;;;;;11.53;2.90;;;;;5.80;102041.00;;;;5002902;28;20721;-74
2021/12/20 04:17:43;;;;;;;15.57;2.83;;;;;5.80;102045.00;;;;4996839;28;20242;-75
2021/12/20 04:20:31;;;;;;;9.23;2.07;;;;;5.80;102044.00;;;;5008879;28;20285;-74
2021/12/20 04:23:20;;;;;;;6.03;2.20;;;;;5.80;102045.00;;;;4996512;28;20360;-74
2021/12/20 04:26:06;;;;;;;9.60;2.17;;;;;5.80;102048.00;;;;5005562;28;20238;-73
2021/12/20 04:28:52;;;;;;;15.03;2.70;;;;;5.80;102051.00;;;;5009201;28;20908;-73
2021/12/20 04:31:38;;;;;;;9.23;2.23;;;;;5.80;102047.00;;;;5006433;28;20879;-74
2021/12/20 04:34:25;;;;;;;16.77;3.30;;;;;5.80;102049.00;;;;5008712;28;20643;-74
2021/12/20 04:37:13;;;;;;;16.57;2.90;;;;;5.90;102049.00;;;;4993985;28;20366;-74
2021/12/20 04:40:00;;;;;;;11.17;3.40;;;;;5.90;102050.00;;;;4998837;28;20712;-73
2021/12/20 04:42:47;;;;;;;9.60;2.47;;;;;5.90;102053.00;;;;4999732;28;20288;-75
2021/12/20 04:45:35;;;;;;;15.23;3.17;;;;;5.90;102059.00;;;;5015895;28;20249;-75
2021/12/20 04:48:21;;;;;;;14.00;2.97;;;;;5.90;102057.00;;;;5018978;28;20225;-74
2021/12/20 04:51:08;;;;;;;14.77;2.67;;;;;6.00;102063.00;;;;5009220;28;20245;-73
2021/12/20 04:53:56;;;;;;;17.37;3.07;;;;;6.00;102050.00;;;;5008768;28;20238;-73
2021/12/20 04:56:42;;;;;;;12.50;2.63;;;;;5.90;102053.00;;;;5008986;28;20230;-73
2021/12/20 04:59:28;;;;;;;17.80;3.23;;;;;5.80;102054.00;;;;4994174;28;20230;-75
2021/12/20 05:02:14;;;;;;;12.83;2.60;;;;;5.80;102047.00;;;;5002524;28;20281;-75
2021/12/20 05:05:00;;;;;;;14.90;2.67;;;;;5.70;102061.00;;;;5009383;28;20229;-74
2021/12/20 05:07:47;;;;;;;14.23;2.40;;;;;5.50;102067.00;;;;5001412;28;20226;-71
2021/12/20 05:10:38;;;;;;;14.33;3.03;;;;;5.40;102056.00;;;;5009080;28;20316;-74
2021/12/20 05:13:24;;;;;;;18.00;2.60;;;;;5.20;102055.00;;;;4994021;28;20235;-74
2021/12/20 05:16:10;;;;;;;13.40;3.10;;;;;5.20;102056.00;;;;4996972;28;20225;-74
2021/12/20 05:18:56;;;;;;;8.83;2.20;;;;;5.00;102063.00;;;;4981888;28;20227;-74
2021/12/20 05:21:43;;;;;;;17.37;2.83;;;;;5.00;102058.00;;;;4992107;28;20234;-74
2021/12/20 05:24:29;;;;;;;11.07;2.47;;;;;5.00;102066.00;;;;4993077;28;20907;-75
2021/12/20 05:27:17;;;;;;;16.97;2.80;;;;;4.80;102059.00;;;;4995385;28;20273;-74
2021/12/20 05:30:05;;;;;;;9.43;2.50;;;;;4.70;102067.00;;;;5008799;28;20376;-75
2021/12/20 05:32:51;;;;;;;12.93;2.80;;;;;4.70;102071.00;;;;5005884;28;20222;-74
2021/12/20 05:35:38;;;;;;;15.67;3.00;;;;;4.50;102060.00;;;;5008108;28;20238;-74
2021/12/20 05:38:24;;;;;;;7.50;2.10;;;;;4.40;102068.00;;;;4999012;28;20242;-74
2021/12/20 05:41:10;;;;;;;17.20;2.67;;;;;4.40;102069.00;;;;5008279;28;20312;-72
2021/12/20 05:43:58;;;;;;;4.30;2.03;;;;;4.40;102069.00;;;;4991390;28;20300;-73
2021/12/20 05:46:44;;;;;;;9.13;2.60;;;;;4.30;102078.00;;;;5000933;28;20234;-74
2021/12/20 05:49:31;;;;;;;9.07;2.90;;;;;4.40;102080.00;;;;4986705;28;20251;-76
2021/12/20 05:52:18;;;;;;;6.30;2.20;;;;;4.30;102084.00;;;;4997817;28;20238;-74
2021/12/20 05:55:05;;;;;;;8.07;2.20;;;;;4.10;102093.00;;;;4990871;28;20230;-74
2021/12/20 05:57:52;;;;;;;7.37;2.80;;;;;4.10;102081.00;;;;4997116;28;20281;-74
2021/12/20 06:00:39;;;;;;;8.33;2.43;;;;;4.10;102083.00;;;;5005703;28;20238;-77
2021/12/20 06:03:26;;;;;;;11.37;2.60;;;;;4.00;102097.00;;;;4998273;28;20406;-76
2021/12/20 06:06:13;;;;;;;13.43;2.57;;;;;4.10;102097.00;;;;5006155;28;20229;-74
2021/12/20 06:08:59;;;;;;;11.63;2.83;;;;;3.90;102089.00;;;;4989427;28;20355;-76
2021/12/20 06:11:46;;;;;;;12.80;2.67;;;;;3.80;102087.00;;;;4988766;28;20359;-76
2021/12/20 06:14:33;;;;;;;11.97;2.17;;;;;3.80;102095.00;;;;5000192;28;20362;-75
2021/12/20 06:17:22;;;;;;;9.07;2.17;;;;;3.70;102088.00;;;;5007853;28;20234;-75
2021/12/20 06:20:11;;;;;;;7.83;2.33;;;;;3.70;102083.00;;;;5001479;28;20231;-73
2021/12/20 06:22:57;;;;;;;9.57;2.73;;;;;3.60;102096.00;;;;5002268;28;20229;-76
2021/12/20 06:25:44;;;;;;;9.70;2.43;;;;;3.60;102101.00;;;;4995814;28;20245;-75
2021/12/20 06:28:30;;;;;;;10.67;2.33;;;;;3.60;102107.00;;;;5008478;28;20241;-75
2021/12/20 06:31:16;;;;;;;11.57;2.23;;;;;3.50;102097.00;;;;5001695;28;20233;-74
2021/12/20 06:34:04;;;;;;;9.63;2.60;;;;;3.50;102108.00;;;;5004183;28;20229;-75
2021/12/20 06:36:50;;;;;;;10.03;2.30;;;;;3.50;102108.00;;;;4999776;28;20233;-77
2021/12/20 06:39:36;;;;;;;6.23;2.13;;;;;3.50;102116.00;;;;4999324;28;20357;-74
2021/12/20 06:42:22;;;;;;;9.47;2.37;;;;;3.40;102115.00;;;;4998289;28;20729;-74
2021/12/20 06:45:10;;;;;;;17.83;2.60;;;;;3.40;102109.00;;;;5001439;28;20235;-74
2021/12/20 06:47:57;;;;;;;10.70;2.70;;;;;3.30;102126.00;;;;5005471;28;20237;-72
2021/12/20 06:50:45;;;;;;;12.97;2.37;;;;;3.30;102117.00;;;;5003093;28;20325;-74
2021/12/20 06:53:31;;;;;;;7.73;2.17;;;;;3.20;102114.00;;;;5019733;28;20296;-74
2021/12/20 06:56:18;;;;;;;9.23;2.30;;;;;3.10;102112.00;;;;5000714;28;20260;-72
2021/12/20 06:59:05;;;;;;;15.63;2.40;;;;;3.10;102121.00;;;;5005756;28;20229;-74
2021/12/20 07:01:51;;;;;;;13.27;2.53;;;;;3.00;102117.00;;;;5002189;28;20276;-74
2021/12/20 07:04:37;;;;;;;7.57;2.40;;;;;3.00;102118.00;;;;4993878;28;20361;-74
2021/12/20 07:07:25;;;;;;;8.87;2.33;;;;;3.00;102126.00;;;;5004616;28;20381;-73
2021/12/20 07:10:12;;;;;;;11.93;4.80;;;;;2.90;102105.00;;;;5010282;28;20230;-74
2021/12/20 07:12:58;;;;;;;15.03;2.70;;;;;2.80;102133.00;;;;5004667;28;20233;-73
2021/12/20 07:15:44;;;;;;;8.60;2.37;;;;;2.80;102126.00;;;;4990416;28;20238;-72
2021/12/20 07:18:31;;;;;;;12.23;2.47;;;;;2.70;102127.00;;;;5008145;28;20238;-74
2021/12/20 07:21:17;;;;;;;12.77;2.70;;;;;2.70;102131.00;;;;4991758;28;20394;-71
2021/12/20 07:24:05;;;;;;;15.53;3.07;;;;;2.70;102136.00;;;;4989363;28;20367;-70
2021/12/20 07:26:51;;;;;;;10.80;2.63;;;;;2.70;102139.00;;;;4981718;28;20236;-71
2021/12/20 07:29:38;;;;;;;11.27;2.50;;;;;2.70;102140.00;;;;4984261;28;21714;-70
2021/12/20 07:32:24;;;;;;;10.20;2.80;;;;;2.70;102148.00;;;;4982840;28;20409;-70
2021/12/20 07:35:11;;;;;;;8.87;2.70;;;;;2.50;102139.00;;;;4995978;28;20797;-70
2021/12/20 07:38:00;;;;;;;15.90;3.40;;;;;2.50;102137.00;;;;4975106;28;20234;-72
2021/12/20 07:40:49;;;;;;;6.93;2.60;;;;;2.40;102148.00;;;;4987659;28;20231;-72
2021/12/20 07:43:36;;;;;;;12.40;2.57;;;;;2.40;102142.00;;;;4986509;28;20492;-73
2021/12/20 07:46:22;;;;;;;8.07;2.33;;;;;2.40;102143.00;;;;4988721;28;20233;-68
2021/12/20 07:49:08;;;;;;;5.90;2.37;;;;;2.60;102142.00;;;;4984757;28;20297;-71
2021/12/20 07:51:55;;;;;;;16.13;2.80;;;;;2.40;102156.00;;;;4981340;28;20402;-71
2021/12/20 07:54:41;;;;;;;8.27;2.50;;;;;2.40;102151.00;;;;4982395;28;20231;-70
2021/12/20 07:57:29;;;;;;;10.03;2.40;;;;;2.50;102152.00;;;;4996313;28;20238;-69
2021/12/20 08:00:15;;;;;;;6.07;2.20;;;;;2.40;102149.00;;;;5008761;28;20247;-66
2021/12/20 08:03:02;;;;;;;11.73;3.00;;;;;2.40;102163.00;;;;5010255;28;20285;-71
2021/12/20 08:05:49;;;;;;;7.63;2.53;;;;;2.50;102161.00;;;;5016147;28;20224;-71
2021/12/20 08:08:36;;;;;;;6.77;2.20;;;;;2.50;102160.00;;;;5025683;28;20218;-72
2021/12/20 08:11:23;;;;;;;14.33;3.10;;;;;2.60;102165.00;;;;5027401;28;20285;-72
2021/12/20 08:14:10;;;;;;;11.03;2.13;;;;;2.60;102154.00;;;;5011312;28;20291;-72
2021/12/20 08:16:57;;;;;;;6.80;2.43;;;;;2.70;102167.00;;;;5003546;28;20259;-73
2021/12/20 08:19:43;;;;;;;10.57;2.80;;;;;2.50;102179.00;;;;4999043;28;20245;-71
2021/12/20 08:22:29;;;;;;;7.83;2.73;;;;;2.40;102177.00;;;;5027274;28;20254;-72
2021/12/20 08:25:18;;;;;;;9.30;3.70;;;;;2.40;102182.00;;;;5031762;28;20274;-71
2021/12/20 08:28:05;;;;;;;10.03;2.50;;;;;2.60;102172.00;;;;5008948;28;20215;-72
2021/12/20 08:30:52;;;;;;;5.53;2.40;;;;;2.50;102167.00;;;;5016082;28;20292;-71
2021/12/20 08:33:39;;;;;;;9.77;3.00;;;;;2.60;102182.00;;;;5000844;28;20239;-72
2021/12/20 08:36:25;;;;;;;9.20;2.90;;;;;2.50;102190.00;;;;4999593;28;20621;-70
2021/12/20 08:39:15;;;;;;;14.13;3.63;;;;;2.50;102185.00;;;;5004536;28;20777;-72
2021/12/20 08:42:03;;;;;;;11.30;3.80;;;;;2.60;102190.00;;;;4995986;28;20237;-71
2021/12/20 08:44:50;;;;;;;23.27;3.93;;;;;2.50;102184.00;;;;4998067;28;20225;-69
2021/12/20 08:47:38;;;;;;;8.30;3.10;;;;;2.60;102189.00;;;;5004001;28;20237;-73
2021/12/20 08:50:25;;;;;;;11.30;3.77;;;;;2.60;102186.00;;;;4986559;28;20277;-72
2021/12/20 08:53:12;;;;;;;13.47;4.60;;;;;2.80;102191.00;;;;5006699;28;20230;-72
2021/12/20 08:55:58;;;;;;;15.13;4.50;;;;;2.80;102196.00;;;;4990678;28;20293;-72
2021/12/20 08:58:46;;;;;;;15.40;5.00;;;;;2.80;102197.00;;;;4999036;28;20258;-72
2021/12/20 09:01:33;;;;;;;22.57;5.97;;;;;2.90;102209.00;;;;5001174;28;20802;-73
2021/12/20 09:04:20;;;;;;;12.20;4.83;;;;;3.00;102218.00;;;;5000849;28;20229;-72
2021/12/20 09:07:14;;;;;;;17.80;5.03;;;;;3.00;102228.00;;;;4995049;28;20240;-73
2021/12/20 09:10:00;;;;;;;11.13;4.90;;;;;3.10;102204.00;;;;5000560;28;20233;-75
2021/12/20 09:12:47;;;;;;;13.20;5.27;;;;;3.20;102216.00;;;;4995545;28;20229;-72
2021/12/20 09:15:35;;;;;;;15.50;7.10;;;;;3.30;102226.00;;;;5002253;28;20236;-73
2021/12/20 09:18:21;;;;;;;19.83;9.07;;;;;3.30;102231.00;;;;4987661;28;20239;-73
2021/12/20 09:21:11;;;;;;;22.40;8.53;;;;;3.30;102226.00;;;;4991610;28;20230;-72
2021/12/20 09:23:57;;;;;;;20.80;7.60;;;;;3.50;102227.00;;;;5014565;28;20225;-73
2021/12/20 09:26:44;;;;;;;21.20;7.10;;;;;3.60;102224.00;;;;4998108;28;20742;-74
2021/12/20 09:29:31;;;;;;;19.20;6.30;;;;;3.70;102238.00;;;;5009215;28;20238;-75
2021/12/20 09:32:17;;;;;;;19.63;6.53;;;;;3.80;102237.00;;;;4993290;28;20293;-73
2021/12/20 09:35:04;;;;;;;26.07;5.90;;;;;3.80;102240.00;;;;4973941;28;20573;-73
2021/12/20 09:37:52;;;;;;;12.27;5.67;;;;;3.90;102239.00;;;;4986690;28;20748;-72
2021/12/20 09:40:42;;;;;;;20.57;5.63;;;;;4.00;102242.00;;;;5004270;28;20787;-71
2021/12/20 09:43:30;;;;;;;15.30;6.70;;;;;4.10;102239.00;;;;4984931;28;20223;-71
2021/12/20 09:46:18;;;;;;;20.83;5.53;;;;;4.20;102240.00;;;;5001823;28;20230;-72
2021/12/20 09:49:05;;;;;;;22.10;6.57;;;;;4.20;102244.00;;;;5006654;28;20276;-72
2021/12/20 09:51:52;;;;;;;20.57;6.67;;;;;4.30;102235.00;;;;4989740;28;20226;-72
2021/12/20 09:54:40;;;;;;;15.00;5.67;;;;;4.40;102228.00;;;;4976211;28;20234;-71
2021/12/20 09:57:27;;;;;;;21.73;5.50;;;;;4.40;102236.00;;;;4972851;28;20247;-72
2021/12/20 10:00:15;;;;;;;20.83;6.30;;;;;4.50;102231.00;;;;4980215;28;20853;-71
2021/12/20 10:03:02;;;;;;;18.50;5.67;;;;;4.60;102228.00;;;;4984485;28;20235;-71
2021/12/20 10:05:53;;;;;;;23.43;6.50;;;;;4.60;102232.00;;;;4984782;28;20226;-72
2021/12/20 10:08:50;;;;;;;19.87;6.20;;;;;4.70;102229.00;;;;4983747;28;20402;-72
2021/12/20 10:11:38;;;;;;;16.80;5.63;;;;;4.90;102229.00;;;;4982414;28;21145;-71
2021/12/20 10:14:25;;;;;;;15.87;5.67;;;;;5.00;102230.00;;;;4981412;28;20803;-71
2021/12/20 10:17:11;;;;;;;19.90;6.00;;;;;5.00;102235.00;;;;4982411;28;20234;-72
2021/12/20 10:20:13;;;;;;;18.13;6.03;;;;;5.10;102243.00;;;;4989137;28;20235;-71
2021/12/20 10:23:12;;;;;;;19.13;6.30;;;;;5.10;102248.00;;;;4979660;28;20258;-71
2021/12/20 10:26:00;;;;;;;27.07;6.67;;;;;5.10;102240.00;;;;4979241;28;20219;-72
2021/12/20 10:28:53;;;;;;;19.50;6.53;;;;;5.20;102237.00;;;;4986067;28;20234;-70
2021/12/20 10:31:39;;;;;;;18.87;5.27;;;;;5.20;102242.00;;;;4973943;28;20230;-71
2021/12/20 10:34:34;;;;;;;22.67;5.67;;;;;5.20;102243.00;;;;4987881;28;20976;-67
2021/12/20 10:37:39;;;;;;;17.73;5.13;;;;;5.30;102234.00;;;;4985960;28;20304;-71
2021/12/20 10:40:26;;;;;;;18.80;5.40;;;;;5.40;102253.00;;;;4982529;28;20282;-72
2021/12/20 10:43:15;;;;;;;22.67;5.37;;;;;5.60;102255.00;;;;4983733;28;20235;-69
2021/12/20 10:46:10;;;;;;;29.60;6.27;;;;;5.60;102249.00;;;;4986482;28;20606;-72
2021/12/20 10:49:05;;;;;;;19.33;5.07;;;;;5.70;102244.00;;;;4996652;28;20226;-71
2021/12/20 10:51:52;;;;;;;17.50;5.70;;;;;5.70;102245.00;;;;4980937;28;20238;-71
2021/12/20 10:54:43;;;;;;;23.67;6.03;;;;;5.80;102257.00;;;;4994631;28;20316;-69
2021/12/20 10:57:30;;;;;;;23.37;5.93;;;;;5.90;102250.00;;;;5002952;28;20242;-67
2021/12/20 11:00:19;;;;;;;22.53;5.70;;;;;6.00;102256.00;;;;4982853;28;20750;-68
2021/12/20 11:03:21;;;;;;;15.50;5.07;;;;;6.20;102243.00;;;;4988383;28;20230;-71
2021/12/20 11:06:24;;;;;;;20.67;5.37;;;;;6.30;102249.00;;;;4981746;28;20272;-70
2021/12/20 11:09:18;;;;;;;15.80;4.90;;;;;6.30;102245.00;;;;4992886;28;20233;-70
2021/12/20 11:12:06;;;;;;;15.27;5.50;;;;;6.30;102243.00;;;;4984453;28;20469;-74
2021/12/20 11:14:54;;;;;;;15.63;5.80;;;;;6.30;102239.00;;;;5001319;28;20710;-73
2021/12/20 11:17:43;;;;;;;20.73;5.63;;;;;6.40;102237.00;;;;4973838;28;20742;-72
2021/12/20 11:20:31;;;;;;;19.17;6.03;;;;;6.40;102241.00;;;;4996248;28;20392;-74
2021/12/20 11:23:26;;;;;;;26.67;5.97;;;;;6.70;102232.00;;;;4987595;28;20302;-73
2021/12/20 11:26:13;;;;;;;19.60;5.03;;;;;6.60;102224.00;;;;4990734;28;20278;-73
2021/12/20 11:28:59;;;;;;;18.10;5.70;;;;;6.70;102228.00;;;;4988792;28;20609;-73
2021/12/20 11:31:46;;;;;;;18.27;5.00;;;;;6.60;102230.00;;;;4998507;28;20363;-73
2021/12/20 11:34:34;;;;;;;20.73;4.87;;;;;6.70;102207.00;;;;4994779;28;20234;-73
2021/12/20 11:37:25;;;;;;;16.33;5.47;;;;;6.60;102227.00;;;;5003241;28;20640;-73
2021/12/20 11:40:14;;;;;;;23.00;4.90;;;;;6.50;102218.00;;;;4998445;28;20229;-73
2021/12/20 11:43:01;;;;;;;15.17;4.70;;;;;6.60;102224.00;;;;4982800;28;21031;-74
2021/12/20 11:45:48;;;;;;;25.17;5.63;;;;;6.50;102224.00;;;;4990466;28;20293;-72
2021/12/20 11:48:38;;;;;;;15.67;5.83;;;;;6.70;102221.00;;;;5008392;28;20304;-72
2021/12/20 11:51:25;;;;;;;19.23;5.80;;;;;6.70;102220.00;;;;5007085;28;20324;-73
2021/12/20 11:54:32;;;;;;;16.70;5.07;;;;;6.70;102224.00;;;;5008372;28;20261;-72
2021/12/20 11:57:38;;;;;;;18.47;5.27;;;;;6.70;102218.00;;;;4993791;28;20760;-74
2021/12/20 12:00:30;;;;;;;19.03;4.87;;;;;6.70;102218.00;;;;4988106;28;20253;-73
2021/12/20 12:03:19;;;;;;;17.03;4.60;;;;;6.80;102216.00;;;;4990906;28;20234;-73
2021/12/20 12:06:08;;;;;;;14.83;4.77;;;;;6.90;102217.00;;;;4992215;28;20282;-71
2021/12/20 12:08:58;;;;;;;14.63;4.17;;;;;6.80;102219.00;;;;4990743;28;20710;-73
2021/12/20 12:12:27;;;;;;;16.80;4.50;;;;;6.80;102215.00;;;;4992500;28;20231;-72
2021/12/20 12:15:39;;;;;;;16.97;4.40;;;;;6.70;102199.00;;;;4989665;28;20239;-73
2021/12/20 12:18:48;;;;;;;19.87;4.37;;;;;6.80;102203.00;;;;4998934;28;20290;-72
2021/12/20 12:21:40;;;;;;;14.77;4.47;;;;;7.00;102195.00;;;;5000597;28;20976;-74
2021/12/20 12:24:49;;;;;;;20.30;4.80;;;;;6.90;102206.00;;;;5004935;28;20301;-73
2021/12/20 12:27:40;;;;;;;13.87;4.10;;;;;6.90;102208.00;;;;5015210;28;20233;-73
2021/12/20 12:30:36;;;;;;;14.47;4.60;;;;;7.10;102201.00;;;;5016325;28;20249;-73
2021/12/20 12:33:31;;;;;;;16.00;4.13;;;;;6.90;102195.00;;;;4996075;28;20331;-74
2021/12/20 12:36:31;;;;;;;12.43;5.00;;;;;6.70;102204.00;;;;5015892;28;20617;-73
2021/12/20 12:39:22;;;;;;;11.27;4.33;;;;;6.60;102207.00;;;;5010601;28;20246;-74
2021/12/20 12:42:08;;;;;;;13.47;4.37;;;;;6.40;102209.00;;;;5007584;28;20237;-73
2021/12/20 12:44:56;;;;;;;15.70;4.60;;;;;6.20;102208.00;;;;5001059;28;20304;-73
2021/12/20 12:47:43;;;;;;;8.90;3.70;;;;;6.20;102209.00;;;;5004685;28;20232;-71
2021/12/20 12:50:31;;;;;;;13.37;4.07;;;;;6.40;102220.00;;;;4993300;28;20234;-73
2021/12/20 12:53:41;;;;;;;8.70;3.20;;;;;6.20;102218.00;;;;5019165;28;20228;-73
2021/12/20 12:56:32;;;;;;;17.57;4.30;;;;;6.20;102200.00;;;;5005835;28;20241;-72
2021/12/20 12:59:24;;;;;;;14.83;4.10;;;;;6.10;102211.00;;;;5011881;28;20400;-74
2021/12/20 13:02:15;;;;;;;11.50;3.50;;;;;6.10;102208.00;;;;4998761;28;20688;-74
2021/12/20 13:05:07;;;;;;;17.50;5.80;;;;;6.10;102206.00;;;;5012819;28;20316;-72
2021/12/20 13:07:54;;;;;;;14.27;3.63;;;;;6.10;102203.00;;;;5006785;28;20230;-74
2021/12/20 13:10:43;;;;;;;11.57;3.63;;;;;6.10;102210.00;;;;5017246;28;20238;-74
2021/12/20 13:13:32;;;;;;;12.63;3.10;;;;;6.10;102217.00;;;;5006328;28;20229;-74
2021/12/20 13:16:23;;;;;;;11.17;4.40;;;;;6.10;102213.00;;;;5006803;28;20675;-74
2021/12/20 13:19:13;;;;;;;14.67;4.60;;;;;6.10;102218.00;;;;4998687;28;20235;-75
2021/12/20 13:22:00;;;;;;;12.37;4.50;;;;;6.10;102219.00;;;;4993264;28;20239;-73
2021/12/20 13:24:53;;;;;;;20.30;6.33;;;;;6.10;102211.00;;;;4981376;28;20218;-73
2021/12/20 13:27:39;;;;;;;9.47;4.53;;;;;6.20;102209.00;;;;5015721;28;20777;-73
2021/12/20 13:30:29;;;;;;;7.90;3.37;;;;;6.10;102205.00;;;;5014883;28;20595;-73
2021/12/20 13:33:17;;;;;;;9.40;3.70;;;;;6.20;102187.00;;;;5015997;28;20233;-73
2021/12/20 13:36:07;;;;;;;9.40;3.60;;;;;6.30;102197.00;;;;4984300;28;20709;-73
2021/12/20 13:38:56;;;;;;;14.03;3.80;;;;;6.20;102197.00;;;;5002703;28;20233;-73
2021/12/20 13:41:42;;;;;;;9.37;3.23;;;;;6.20;102197.00;;;;4989309;28;20234;-72
2021/12/20 13:44:30;;;;;;;6.20;2.63;;;;;6.20;102191.00;;;;4991637;28;20233;-73
2021/12/20 13:47:18;;;;;;;9.97;2.83;;;;;6.10;102196.00;;;;4987528;28;20313;-75
2021/12/20 13:50:15;;;;;;;7.03;2.57;;;;;6.20;102193.00;;;;5008104;28;20233;-74
2021/12/20 13:53:03;;;;;;;11.03;2.80;;;;;6.20;102202.00;;;;5002783;28;20645;-73
2021/12/20 13:55:55;;;;;;;9.33;3.20;;;;;6.00;102208.00;;;;4985383;28;20769;-74
2021/12/20 13:58:48;;;;;;;11.40;2.90;;;;;5.90;102206.00;;;;5007065;28;20233;-72
2021/12/20 14:01:34;;;;;;;10.50;3.30;;;;;5.90;102211.00;;;;5013784;28;20329;-73
2021/12/20 14:04:35;;;;;;;13.80;4.03;;;;;5.80;102204.00;;;;5019187;28;20291;-74